PWSweather.com
Personal Weather Stations
Station Observations
ESTFIQ
Santa Fe, Santa FeAR 3000

Santa FeSanta FeAR 3000

Lat: -31.637, Lon: -60.708

Elevation: 69

Station Type: WH-1081

http://galileo4.unl.edu.ar/estacion

Latest ConditionsUpdated 4:35:47 AM GMT-03:57 Tuesday, Oct 17, 2017
Currently Today's Max Today's Min Today's Average
Temperature 70.2°F21.2°C 72.7°F22.6°C 69.6°F20.9°C 71.2°F21.8°C
Dew Point 64.8°F18.2°C 64.8°F18.2°C 59.4°F15.2°C 62.0°F16.7°C
Winds 4.5 mph E7.2 kmh E 7.6 mph NNE12.2 kmh NNE - 3.9 mph 6.3 kmh
Wind Gusts 8.3 mph13.4 kmh 12.1 mph19.5 kmh - -
Humidity 83% 83% 65% 73%
Pressure 29.70 in1005.8 mb 29.78 in1008.5 mb 29.69 in1005.4 mb -
Hour Temp Dew Point Humidity Winds Wind Gusts Pressure Precip Precip Rate Daily Precip Total
04:35 AM 70.2°F21.2°C 64.8°F18.2°C 83% 4.5 mph E7.2 kmh E 8.3 mph13.4 kmh 29.70 in1005.8 mb 0.00 in0.0 mm 0.00 in0.0 mm 0.00 in0.0 mm
04:30 AM 69.8°F21.0°C 64.1°F17.8°C 82% 3.1 mph E5.0 kmh E 7.6 mph12.2 kmh 29.70 in1005.8 mb 0.00 in0.0 mm 0.00 in0.0 mm 0.00 in0.0 mm
04:25 AM 69.6°F20.9°C 63.9°F17.7°C 82% 2.2 mph ESE3.5 kmh ESE 4.5 mph7.2 kmh 29.70 in1005.8 mb 0.00 in0.0 mm 0.00 in0.0 mm 0.00 in0.0 mm
04:20 AM 69.6°F20.9°C 63.6°F17.6°C 81% 2.2 mph SE3.5 kmh SE 6.9 mph11.1 kmh 29.70 in1005.8 mb 0.00 in0.0 mm 0.00 in0.0 mm 0.00 in0.0 mm
04:15 AM 69.8°F21.0°C 63.0°F17.2°C 79% 3.8 mph SE6.1 kmh SE 6.9 mph11.1 kmh 29.70 in1005.8 mb 0.00 in0.0 mm 0.00 in0.0 mm 0.00 in0.0 mm
04:10 AM 70.0°F21.1°C 62.8°F17.1°C 78% 2.2 mph SE3.5 kmh SE 6.0 mph9.7 kmh 29.69 in1005.4 mb 0.00 in0.0 mm 0.00 in0.0 mm 0.00 in0.0 mm
04:05 AM 70.5°F21.4°C 63.4°F17.4°C 78% 2.2 mph SE3.5 kmh SE 6.9 mph11.1 kmh 29.70 in1005.8 mb 0.00 in0.0 mm 0.00 in0.0 mm 0.00 in0.0 mm
04:00 AM 70.7°F21.5°C 63.9°F17.7°C 79% 2.2 mph SE3.5 kmh SE 9.2 mph14.8 kmh 29.70 in1005.8 mb 0.00 in0.0 mm 0.00 in0.0 mm 0.00 in0.0 mm
03:55 AM 70.9°F21.6°C 64.1°F17.8°C 79% 2.2 mph E3.5 kmh E 9.2 mph14.8 kmh 29.70 in1005.8 mb 0.00 in0.0 mm 0.00 in0.0 mm 0.00 in0.0 mm
03:50 AM 70.9°F21.6°C 64.1°F17.8°C 79% 3.8 mph E6.1 kmh E 8.3 mph13.4 kmh 29.70 in1005.8 mb 0.00 in0.0 mm 0.00 in0.0 mm 0.00 in0.0 mm
03:45 AM 70.7°F21.5°C 63.9°F17.7°C 79% 3.1 mph E5.0 kmh E 7.6 mph12.2 kmh 29.70 in1005.8 mb 0.00 in0.0 mm 0.00 in0.0 mm 0.00 in0.0 mm
03:40 AM 70.7°F21.5°C 63.9°F17.7°C 79% 4.5 mph E7.2 kmh E 9.2 mph14.8 kmh 29.71 in1006.1 mb 0.00 in0.0 mm 0.00 in0.0 mm 0.00 in0.0 mm
03:35 AM 70.7°F21.5°C 63.9°F17.7°C 79% 3.8 mph E6.1 kmh E 9.2 mph14.8 kmh 29.72 in1006.4 mb 0.00 in0.0 mm 0.00 in0.0 mm 0.00 in0.0 mm
03:30 AM 70.7°F21.5°C 63.9°F17.7°C 79% 6.9 mph E11.1 kmh E 9.2 mph14.8 kmh 29.72 in1006.4 mb 0.00 in0.0 mm 0.00 in0.0 mm 0.00 in0.0 mm
03:25 AM 70.9°F21.6°C 64.1°F17.8°C 79% 5.4 mph E8.7 kmh E 7.6 mph12.2 kmh 29.71 in1006.1 mb 0.00 in0.0 mm 0.00 in0.0 mm 0.00 in0.0 mm
03:20 AM 70.9°F21.6°C 64.1°F17.8°C 79% 3.8 mph ENE6.1 kmh ENE 6.9 mph11.1 kmh 29.72 in1006.4 mb 0.00 in0.0 mm 0.00 in0.0 mm 0.00 in0.0 mm
03:15 AM 70.9°F21.6°C 63.7°F17.6°C 78% 2.2 mph ENE3.5 kmh ENE 6.9 mph11.1 kmh 29.73 in1006.8 mb 0.00 in0.0 mm 0.00 in0.0 mm 0.00 in0.0 mm
03:10 AM 71.1°F21.7°C 63.9°F17.7°C 78% 5.4 mph E8.7 kmh E 7.6 mph12.2 kmh 29.73 in1006.8 mb 0.00 in0.0 mm 0.00 in0.0 mm 0.00 in0.0 mm
03:05 AM 70.9°F21.6°C 63.7°F17.6°C 78% 3.8 mph E6.1 kmh E 7.6 mph12.2 kmh 29.72 in1006.4 mb 0.00 in0.0 mm 0.00 in0.0 mm 0.00 in0.0 mm
03:00 AM 70.9°F21.6°C 63.3°F17.4°C 77% 4.5 mph E7.2 kmh E 6.9 mph11.1 kmh 29.72 in1006.4 mb 0.00 in0.0 mm 0.00 in0.0 mm 0.00 in0.0 mm
02:55 AM 70.9°F21.6°C 63.0°F17.2°C 76% 3.1 mph E5.0 kmh E 6.9 mph11.1 kmh 29.72 in1006.4 mb 0.00 in0.0 mm 0.00 in0.0 mm 0.00 in0.0 mm
02:50 AM 70.9°F21.6°C 62.6°F17.0°C 75% 3.8 mph E6.1 kmh E 6.0 mph9.7 kmh 29.73 in1006.8 mb 0.00 in0.0 mm 0.00 in0.0 mm 0.00 in0.0 mm
02:45 AM 70.9°F21.6°C 62.6°F17.0°C 75% 3.8 mph E6.1 kmh E 6.0 mph9.7 kmh 29.73 in1006.8 mb 0.00 in0.0 mm 0.00 in0.0 mm 0.00 in0.0 mm
02:40 AM 70.9°F21.6°C 62.2°F16.8°C 74% 3.8 mph E6.1 kmh E 6.0 mph9.7 kmh 29.72 in1006.4 mb 0.00 in0.0 mm 0.00 in0.0 mm 0.00 in0.0 mm
02:35 AM 70.9°F21.6°C 61.8°F16.6°C 73% 3.8 mph E6.1 kmh E 6.0 mph9.7 kmh 29.73 in1006.8 mb 0.00 in0.0 mm 0.00 in0.0 mm 0.00 in0.0 mm
02:30 AM 70.7°F21.5°C 61.6°F16.4°C 73% 3.1 mph ENE5.0 kmh ENE 7.6 mph12.2 kmh 29.72 in1006.4 mb 0.00 in0.0 mm 0.00 in0.0 mm 0.00 in0.0 mm
02:25 AM 70.7°F21.5°C 61.6°F16.4°C 73% 3.1 mph ENE5.0 kmh ENE 7.6 mph12.2 kmh 29.73 in1006.8 mb 0.00 in0.0 mm 0.00 in0.0 mm 0.00 in0.0 mm
02:20 AM 70.7°F21.5°C 61.3°F16.3°C 72% 3.1 mph ENE5.0 kmh ENE 9.2 mph14.8 kmh 29.73 in1006.8 mb 0.00 in0.0 mm 0.00 in0.0 mm 0.00 in0.0 mm
02:15 AM 70.7°F21.5°C 61.3°F16.3°C 72% 3.8 mph E6.1 kmh E 9.2 mph14.8 kmh 29.73 in1006.8 mb 0.00 in0.0 mm 0.00 in0.0 mm 0.00 in0.0 mm
02:10 AM 70.7°F21.5°C 60.9°F16.1°C 71% 3.1 mph E5.0 kmh E 7.6 mph12.2 kmh 29.74 in1007.1 mb 0.00 in0.0 mm 0.00 in0.0 mm 0.00 in0.0 mm
02:05 AM 70.9°F21.6°C 61.4°F16.3°C 72% 2.2 mph E3.5 kmh E 7.6 mph12.2 kmh 29.74 in1007.1 mb 0.00 in0.0 mm 0.00 in0.0 mm 0.00 in0.0 mm
02:00 AM 70.9°F21.6°C 61.4°F16.3°C 72% 4.5 mph E7.2 kmh E 7.6 mph12.2 kmh 29.74 in1007.1 mb 0.00 in0.0 mm 0.00 in0.0 mm 0.00 in0.0 mm
01:55 AM 71.1°F21.7°C 61.2°F16.2°C 71% 3.8 mph NE6.1 kmh NE 10.7 mph17.2 kmh 29.75 in1007.5 mb 0.00 in0.0 mm 0.00 in0.0 mm 0.00 in0.0 mm
01:50 AM 71.2°F21.8°C 61.0°F16.1°C 70% 2.2 mph NE3.5 kmh NE 10.7 mph17.2 kmh 29.75 in1007.5 mb 0.00 in0.0 mm 0.00 in0.0 mm 0.00 in0.0 mm
01:45 AM 71.2°F21.8°C 61.0°F16.1°C 70% 6.0 mph NE9.7 kmh NE 9.8 mph15.8 kmh 29.75 in1007.5 mb 0.00 in0.0 mm 0.00 in0.0 mm 0.00 in0.0 mm
01:40 AM 71.2°F21.8°C 61.0°F16.1°C 70% 7.6 mph NNE12.2 kmh NNE 9.8 mph15.8 kmh 29.75 in1007.5 mb 0.00 in0.0 mm 0.00 in0.0 mm 0.00 in0.0 mm
01:35 AM 71.4°F21.9°C 60.7°F15.9°C 69% 3.8 mph N6.1 kmh N 9.2 mph14.8 kmh 29.75 in1007.5 mb 0.00 in0.0 mm 0.00 in0.0 mm 0.00 in0.0 mm
01:30 AM 71.4°F21.9°C 60.7°F15.9°C 69% 5.4 mph N8.7 kmh N 9.2 mph14.8 kmh 29.75 in1007.5 mb 0.00 in0.0 mm 0.00 in0.0 mm 0.00 in0.0 mm
01:25 AM 71.6°F22.0°C 60.1°F15.6°C 67% 4.5 mph NNE7.2 kmh NNE 10.7 mph17.2 kmh 29.75 in1007.5 mb 0.00 in0.0 mm 0.00 in0.0 mm 0.00 in0.0 mm
01:20 AM 71.8°F22.1°C 59.8°F15.4°C 66% 5.4 mph NNE8.7 kmh NNE 12.1 mph19.5 kmh 29.76 in1007.8 mb 0.00 in0.0 mm 0.00 in0.0 mm 0.00 in0.0 mm
01:15 AM 71.8°F22.1°C 59.4°F15.2°C 65% 7.6 mph NNE12.2 kmh NNE 12.1 mph19.5 kmh 29.76 in1007.8 mb 0.00 in0.0 mm 0.00 in0.0 mm 0.00 in0.0 mm
01:10 AM 72.0°F22.2°C 59.6°F15.3°C 65% 4.5 mph NE7.2 kmh NE 9.8 mph15.8 kmh 29.76 in1007.8 mb 0.00 in0.0 mm 0.00 in0.0 mm 0.00 in0.0 mm
01:05 AM 72.0°F22.2°C 59.6°F15.3°C 65% 6.0 mph NE9.7 kmh NE 9.8 mph15.8 kmh 29.76 in1007.8 mb 0.00 in0.0 mm 0.00 in0.0 mm 0.00 in0.0 mm
01:00 AM 72.0°F22.2°C 59.6°F15.3°C 65% 1.6 mph NE2.6 kmh NE 9.2 mph14.8 kmh 29.76 in1007.8 mb 0.00 in0.0 mm 0.00 in0.0 mm 0.00 in0.0 mm
12:55 AM 72.0°F22.2°C 60.0°F15.6°C 66% 3.1 mph NE5.0 kmh NE 9.2 mph14.8 kmh 29.77 in1008.1 mb 0.00 in0.0 mm 0.00 in0.0 mm 0.00 in0.0 mm
12:50 AM 72.0°F22.2°C 60.0°F15.6°C 66% 6.0 mph ENE9.7 kmh ENE 9.2 mph14.8 kmh 29.76 in1007.8 mb 0.00 in0.0 mm 0.00 in0.0 mm 0.00 in0.0 mm
12:45 AM 72.0°F22.2°C 60.4°F15.8°C 67% 4.5 mph NNE7.2 kmh NNE 11.4 mph18.3 kmh 29.77 in1008.1 mb 0.00 in0.0 mm 0.00 in0.0 mm 0.00 in0.0 mm
12:40 AM 72.0°F22.2°C 60.9°F16.1°C 68% 5.4 mph NE8.7 kmh NE 11.4 mph18.3 kmh 29.77 in1008.1 mb 0.00 in0.0 mm 0.00 in0.0 mm 0.00 in0.0 mm
12:35 AM 72.0°F22.2°C 61.3°F16.3°C 69% 5.4 mph E8.7 kmh E 6.9 mph11.1 kmh 29.77 in1008.1 mb 0.00 in0.0 mm 0.00 in0.0 mm 0.00 in0.0 mm
12:30 AM 72.0°F22.2°C 60.9°F16.1°C 68% 3.1 mph ENE5.0 kmh ENE 7.6 mph12.2 kmh 29.78 in1008.5 mb 0.00 in0.0 mm 0.00 in0.0 mm 0.00 in0.0 mm
12:25 AM 72.0°F22.2°C 61.3°F16.3°C 69% 2.2 mph ENE3.5 kmh ENE 9.2 mph14.8 kmh 29.77 in1008.1 mb 0.00 in0.0 mm 0.00 in0.0 mm 0.00 in0.0 mm
12:20 AM 72.1°F22.3°C 61.4°F16.3°C 69% 4.5 mph ENE7.2 kmh ENE 9.2 mph14.8 kmh 29.77 in1008.1 mb 0.00 in0.0 mm 0.00 in0.0 mm 0.00 in0.0 mm
12:15 AM 72.1°F22.3°C 61.4°F16.3°C 69% 3.8 mph ENE6.1 kmh ENE 9.8 mph15.8 kmh 29.78 in1008.5 mb 0.00 in0.0 mm 0.00 in0.0 mm 0.00 in0.0 mm
12:10 AM 72.5°F22.5°C 61.8°F16.6°C 69% 4.5 mph NE7.2 kmh NE 9.8 mph15.8 kmh 29.78 in1008.5 mb 0.00 in0.0 mm 0.00 in0.0 mm 0.00 in0.0 mm
12:05 AM 72.7°F22.6°C 61.5°F16.4°C 68% 2.2 mph NE3.5 kmh NE 9.2 mph14.8 kmh 29.78 in1008.5 mb 0.00 in0.0 mm 0.00 in0.0 mm 0.00 in0.0 mm
12:00 AM 72.7°F22.6°C 61.5°F16.4°C 68% 4.5 mph NE7.2 kmh NE 8.3 mph13.4 kmh 29.78 in1008.5 mb 0.00 in0.0 mm 0.00 in0.0 mm 0.00 in0.0 mm